sensor_id;sensor_type;location;lat;lon;timestamp;temperature;humidity
16404;DHT22;8311;50.158;8.642;2023-03-23T00:00:37;21.50;46.00
16404;DHT22;8311;50.158;8.642;2023-03-23T00:03:30;21.50;46.00
16404;DHT22;8311;50.158;8.642;2023-03-23T00:06:24;21.50;46.00
16404;DHT22;8311;50.158;8.642;2023-03-23T00:09:17;21.50;46.00
16404;DHT22;8311;50.158;8.642;2023-03-23T00:12:14;21.50;46.00
16404;DHT22;8311;50.158;8.642;2023-03-23T00:15:09;21.50;46.00
16404;DHT22;8311;50.158;8.642;2023-03-23T00:18:04;21.40;45.90
16404;DHT22;8311;50.158;8.642;2023-03-23T00:20:56;21.40;45.90
16404;DHT22;8311;50.158;8.642;2023-03-23T00:23:49;21.50;46.00
16404;DHT22;8311;50.158;8.642;2023-03-23T00:26:41;21.50;46.00
16404;DHT22;8311;50.158;8.642;2023-03-23T00:29:34;21.50;46.00
16404;DHT22;8311;50.158;8.642;2023-03-23T00:32:28;21.40;45.90
16404;DHT22;8311;50.158;8.642;2023-03-23T00:35:21;21.50;46.00
16404;DHT22;8311;50.158;8.642;2023-03-23T00:38:12;21.50;46.00
16404;DHT22;8311;50.158;8.642;2023-03-23T00:41:05;21.40;45.90
16404;DHT22;8311;50.158;8.642;2023-03-23T00:43:58;21.50;46.00
16404;DHT22;8311;50.158;8.642;2023-03-23T00:46:52;21.50;45.80
16404;DHT22;8311;50.158;8.642;2023-03-23T00:49:48;21.50;45.60
16404;DHT22;8311;50.158;8.642;2023-03-23T00:52:43;21.50;45.50
16404;DHT22;8311;50.158;8.642;2023-03-23T00:55:34;21.50;45.50
16404;DHT22;8311;50.158;8.642;2023-03-23T00:58:26;21.40;45.40
16404;DHT22;8311;50.158;8.642;2023-03-23T01:01:19;21.40;45.30
16404;DHT22;8311;50.158;8.642;2023-03-23T01:04:10;21.40;45.40
16404;DHT22;8311;50.158;8.642;2023-03-23T01:07:04;21.40;45.30
16404;DHT22;8311;50.158;8.642;2023-03-23T01:09:59;21.40;45.30
16404;DHT22;8311;50.158;8.642;2023-03-23T01:12:51;21.40;45.10
16404;DHT22;8311;50.158;8.642;2023-03-23T01:15:44;21.40;45.20
16404;DHT22;8311;50.158;8.642;2023-03-23T01:18:38;21.40;45.30
16404;DHT22;8311;50.158;8.642;2023-03-23T01:21:31;21.40;45.10
16404;DHT22;8311;50.158;8.642;2023-03-23T01:24:25;21.40;45.10
16404;DHT22;8311;50.158;8.642;2023-03-23T01:27:16;21.40;45.00
16404;DHT22;8311;50.158;8.642;2023-03-23T01:30:12;21.40;45.00
16404;DHT22;8311;50.158;8.642;2023-03-23T01:33:03;21.30;45.10
16404;DHT22;8311;50.158;8.642;2023-03-23T01:35:56;21.30;44.90
16404;DHT22;8311;50.158;8.642;2023-03-23T01:38:49;21.30;44.80
16404;DHT22;8311;50.158;8.642;2023-03-23T01:41:42;21.30;44.80
16404;DHT22;8311;50.158;8.642;2023-03-23T01:48:20;21.30;44.40
16404;DHT22;8311;50.158;8.642;2023-03-23T01:51:16;21.30;44.60
16404;DHT22;8311;50.158;8.642;2023-03-23T01:54:11;21.30;44.40
16404;DHT22;8311;50.158;8.642;2023-03-23T01:57:09;21.30;44.40
16404;DHT22;8311;50.158;8.642;2023-03-23T02:00:05;21.30;44.60
16404;DHT22;8311;50.158;8.642;2023-03-23T02:03:05;21.30;44.40
16404;DHT22;8311;50.158;8.642;2023-03-23T02:05:58;21.30;44.50
16404;DHT22;8311;50.158;8.642;2023-03-23T02:08:51;21.30;44.50
16404;DHT22;8311;50.158;8.642;2023-03-23T02:11:44;21.30;44.40
16404;DHT22;8311;50.158;8.642;2023-03-23T02:14:37;21.30;44.50
16404;DHT22;8311;50.158;8.642;2023-03-23T02:17:34;21.30;44.50
16404;DHT22;8311;50.158;8.642;2023-03-23T02:20:52;21.30;44.40
16404;DHT22;8311;50.158;8.642;2023-03-23T02:24:03;21.30;44.70
16404;DHT22;8311;50.158;8.642;2023-03-23T02:27:00;21.30;44.60
16404;DHT22;8311;50.158;8.642;2023-03-23T02:30:09;21.30;44.50
16404;DHT22;8311;50.158;8.642;2023-03-23T02:36:38;21.30;44.30
16404;DHT22;8311;50.158;8.642;2023-03-23T02:39:37;21.30;44.10
16404;DHT22;8311;50.158;8.642;2023-03-23T02:42:33;21.30;44.30
16404;DHT22;8311;50.158;8.642;2023-03-23T02:45:29;21.30;44.30
16404;DHT22;8311;50.158;8.642;2023-03-23T02:48:27;21.30;44.30
16404;DHT22;8311;50.158;8.642;2023-03-23T02:51:20;21.30;44.40
16404;DHT22;8311;50.158;8.642;2023-03-23T02:54:15;21.30;44.30
16404;DHT22;8311;50.158;8.642;2023-03-23T02:57:08;21.30;44.30
16404;DHT22;8311;50.158;8.642;2023-03-23T03:00:00;21.20;44.10
16404;DHT22;8311;50.158;8.642;2023-03-23T03:02:54;21.20;44.10
16404;DHT22;8311;50.158;8.642;2023-03-23T03:05:58;21.20;44.30
16404;DHT22;8311;50.158;8.642;2023-03-23T03:08:55;21.20;44.00
16404;DHT22;8311;50.158;8.642;2023-03-23T03:11:51;21.20;44.30
16404;DHT22;8311;50.158;8.642;2023-03-23T03:14:53;21.20;44.30
16404;DHT22;8311;50.158;8.642;2023-03-23T03:17:55;21.20;44.40
16404;DHT22;8311;50.158;8.642;2023-03-23T03:20:54;21.20;44.40
16404;DHT22;8311;50.158;8.642;2023-03-23T03:23:49;21.20;44.20
16404;DHT22;8311;50.158;8.642;2023-03-23T03:26:45;21.20;44.50
16404;DHT22;8311;50.158;8.642;2023-03-23T03:29:40;21.20;44.40
16404;DHT22;8311;50.158;8.642;2023-03-23T03:32:38;21.20;44.50
16404;DHT22;8311;50.158;8.642;2023-03-23T03:35:30;21.20;44.60
16404;DHT22;8311;50.158;8.642;2023-03-23T03:38:26;21.20;44.50
16404;DHT22;8311;50.158;8.642;2023-03-23T03:41:19;21.20;44.70
16404;DHT22;8311;50.158;8.642;2023-03-23T03:44:11;21.20;44.70
16404;DHT22;8311;50.158;8.642;2023-03-23T03:47:03;21.20;44.70
16404;DHT22;8311;50.158;8.642;2023-03-23T03:49:55;21.20;44.80
16404;DHT22;8311;50.158;8.642;2023-03-23T03:52:47;21.20;44.80
16404;DHT22;8311;50.158;8.642;2023-03-23T03:55:40;21.20;44.80
16404;DHT22;8311;50.158;8.642;2023-03-23T03:58:36;21.20;44.80
16404;DHT22;8311;50.158;8.642;2023-03-23T04:01:28;21.20;44.90
16404;DHT22;8311;50.158;8.642;2023-03-23T04:04:21;21.20;44.90
16404;DHT22;8311;50.158;8.642;2023-03-23T04:07:13;21.20;44.90
16404;DHT22;8311;50.158;8.642;2023-03-23T04:10:09;21.20;44.90
16404;DHT22;8311;50.158;8.642;2023-03-23T04:13:02;21.20;45.00
16404;DHT22;8311;50.158;8.642;2023-03-23T04:15:55;21.20;44.90
16404;DHT22;8311;50.158;8.642;2023-03-23T04:18:47;21.20;45.00
16404;DHT22;8311;50.158;8.642;2023-03-23T04:21:39;21.20;44.90
16404;DHT22;8311;50.158;8.642;2023-03-23T04:24:31;21.20;45.00
16404;DHT22;8311;50.158;8.642;2023-03-23T04:27:24;21.20;45.00
16404;DHT22;8311;50.158;8.642;2023-03-23T04:30:21;21.20;45.00
16404;DHT22;8311;50.158;8.642;2023-03-23T04:33:14;21.20;45.00
16404;DHT22;8311;50.158;8.642;2023-03-23T04:36:06;21.20;45.00
16404;DHT22;8311;50.158;8.642;2023-03-23T04:38:58;21.20;45.00
16404;DHT22;8311;50.158;8.642;2023-03-23T04:41:51;21.20;44.90
16404;DHT22;8311;50.158;8.642;2023-03-23T04:44:43;21.20;45.00
16404;DHT22;8311;50.158;8.642;2023-03-23T04:47:45;21.20;45.00
16404;DHT22;8311;50.158;8.642;2023-03-23T04:50:43;21.20;44.90
16404;DHT22;8311;50.158;8.642;2023-03-23T04:53:35;21.20;44.80
16404;DHT22;8311;50.158;8.642;2023-03-23T04:56:27;21.20;44.90
16404;DHT22;8311;50.158;8.642;2023-03-23T04:59:19;21.10;44.90
16404;DHT22;8311;50.158;8.642;2023-03-23T05:02:12;21.10;44.90
16404;DHT22;8311;50.158;8.642;2023-03-23T05:05:06;21.20;45.00
16404;DHT22;8311;50.158;8.642;2023-03-23T05:07:57;21.20;45.00
16404;DHT22;8311;50.158;8.642;2023-03-23T05:10:51;21.20;45.00
16404;DHT22;8311;50.158;8.642;2023-03-23T05:13:44;21.20;45.00
16404;DHT22;8311;50.158;8.642;2023-03-23T05:16:36;21.10;45.00
16404;DHT22;8311;50.158;8.642;2023-03-23T05:19:28;21.20;45.00
16404;DHT22;8311;50.158;8.642;2023-03-23T05:22:21;21.20;45.00
16404;DHT22;8311;50.158;8.642;2023-03-23T05:25:14;21.10;45.00
16404;DHT22;8311;50.158;8.642;2023-03-23T05:28:06;21.10;45.00
16404;DHT22;8311;50.158;8.642;2023-03-23T05:30:57;21.10;45.00
16404;DHT22;8311;50.158;8.642;2023-03-23T05:33:50;21.10;45.00
16404;DHT22;8311;50.158;8.642;2023-03-23T05:36:42;21.10;45.00
16404;DHT22;8311;50.158;8.642;2023-03-23T05:39:36;21.10;45.00
16404;DHT22;8311;50.158;8.642;2023-03-23T05:42:29;21.10;45.00
16404;DHT22;8311;50.158;8.642;2023-03-23T05:45:21;21.10;45.00
16404;DHT22;8311;50.158;8.642;2023-03-23T05:48:14;21.10;44.90
16404;DHT22;8311;50.158;8.642;2023-03-23T05:51:06;21.10;44.90
16404;DHT22;8311;50.158;8.642;2023-03-23T05:53:58;21.10;44.90
16404;DHT22;8311;50.158;8.642;2023-03-23T05:56:51;21.10;44.80
16404;DHT22;8311;50.158;8.642;2023-03-23T05:59:43;21.10;44.80
16404;DHT22;8311;50.158;8.642;2023-03-23T06:02:36;21.10;44.90
16404;DHT22;8311;50.158;8.642;2023-03-23T06:05:28;21.10;44.70
16404;DHT22;8311;50.158;8.642;2023-03-23T06:08:20;21.10;45.00
16404;DHT22;8311;50.158;8.642;2023-03-23T06:11:13;21.10;45.00
16404;DHT22;8311;50.158;8.642;2023-03-23T06:14:06;21.10;45.00
16404;DHT22;8311;50.158;8.642;2023-03-23T06:16:59;21.10;45.00
16404;DHT22;8311;50.158;8.642;2023-03-23T06:19:51;21.10;45.00
16404;DHT22;8311;50.158;8.642;2023-03-23T06:22:42;21.00;45.10
16404;DHT22;8311;50.158;8.642;2023-03-23T06:25:35;21.00;45.10
16404;DHT22;8311;50.158;8.642;2023-03-23T06:28:27;21.10;45.10
16404;DHT22;8311;50.158;8.642;2023-03-23T06:31:20;21.00;45.00
16404;DHT22;8311;50.158;8.642;2023-03-23T06:34:13;21.10;45.80
16404;DHT22;8311;50.158;8.642;2023-03-23T06:37:05;21.00;45.10
16404;DHT22;8311;50.158;8.642;2023-03-23T06:39:57;21.00;45.20
16404;DHT22;8311;50.158;8.642;2023-03-23T06:42:49;21.10;45.30
16404;DHT22;8311;50.158;8.642;2023-03-23T06:45:41;21.10;45.30
16404;DHT22;8311;50.158;8.642;2023-03-23T06:48:35;21.10;45.30
16404;DHT22;8311;50.158;8.642;2023-03-23T06:51:27;21.10;45.30
16404;DHT22;8311;50.158;8.642;2023-03-23T06:54:19;21.10;45.30
16404;DHT22;8311;50.158;8.642;2023-03-23T06:57:11;21.10;45.40
16404;DHT22;8311;50.158;8.642;2023-03-23T07:00:04;21.10;45.40
16404;DHT22;8311;50.158;8.642;2023-03-23T07:03:04;21.10;45.40
16404;DHT22;8311;50.158;8.642;2023-03-23T07:05:57;21.10;45.40
16404;DHT22;8311;50.158;8.642;2023-03-23T07:08:50;21.10;45.50
16404;DHT22;8311;50.158;8.642;2023-03-23T07:11:42;21.10;45.50
16404;DHT22;8311;50.158;8.642;2023-03-23T07:14:34;21.10;45.50
16404;DHT22;8311;50.158;8.642;2023-03-23T07:17:26;21.10;45.50
16404;DHT22;8311;50.158;8.642;2023-03-23T07:20:19;21.10;45.50
16404;DHT22;8311;50.158;8.642;2023-03-23T07:23:12;21.10;45.60
16404;DHT22;8311;50.158;8.642;2023-03-23T07:26:05;21.10;45.60
16404;DHT22;8311;50.158;8.642;2023-03-23T07:28:58;21.00;45.50
16404;DHT22;8311;50.158;8.642;2023-03-23T07:31:50;21.00;45.60
16404;DHT22;8311;50.158;8.642;2023-03-23T07:34:42;21.00;45.60
16404;DHT22;8311;50.158;8.642;2023-03-23T07:37:34;21.00;45.70
16404;DHT22;8311;50.158;8.642;2023-03-23T07:40:29;21.00;45.80
16404;DHT22;8311;50.158;8.642;2023-03-23T07:43:24;21.00;45.80
16404;DHT22;8311;50.158;8.642;2023-03-23T07:46:16;21.00;45.80
16404;DHT22;8311;50.158;8.642;2023-03-23T07:49:08;21.00;45.80
16404;DHT22;8311;50.158;8.642;2023-03-23T07:52:01;21.00;45.80
16404;DHT22;8311;50.158;8.642;2023-03-23T07:54:53;21.00;45.80
16404;DHT22;8311;50.158;8.642;2023-03-23T07:57:47;21.00;45.80
16404;DHT22;8311;50.158;8.642;2023-03-23T08:00:39;21.00;45.90
16404;DHT22;8311;50.158;8.642;2023-03-23T08:03:32;21.00;45.90
16404;DHT22;8311;50.158;8.642;2023-03-23T08:06:24;21.00;45.90
16404;DHT22;8311;50.158;8.642;2023-03-23T08:09:16;21.00;45.90
16404;DHT22;8311;50.158;8.642;2023-03-23T08:12:08;21.00;46.00
16404;DHT22;8311;50.158;8.642;2023-03-23T08:15:01;21.00;46.20
16404;DHT22;8311;50.158;8.642;2023-03-23T08:17:53;21.00;46.10
16404;DHT22;8311;50.158;8.642;2023-03-23T08:20:45;21.00;46.10
16404;DHT22;8311;50.158;8.642;2023-03-23T08:23:39;21.00;46.20
16404;DHT22;8311;50.158;8.642;2023-03-23T08:26:31;21.00;46.20
16404;DHT22;8311;50.158;8.642;2023-03-23T08:29:23;21.00;46.30
16404;DHT22;8311;50.158;8.642;2023-03-23T08:32:18;21.00;46.20
16404;DHT22;8311;50.158;8.642;2023-03-23T08:35:11;21.00;46.30
16404;DHT22;8311;50.158;8.642;2023-03-23T08:38:03;20.90;46.40
16404;DHT22;8311;50.158;8.642;2023-03-23T08:40:57;20.90;46.30
16404;DHT22;8311;50.158;8.642;2023-03-23T08:43:49;20.90;46.40
16404;DHT22;8311;50.158;8.642;2023-03-23T08:46:43;20.90;46.40
16404;DHT22;8311;50.158;8.642;2023-03-23T08:49:36;20.90;46.40
16404;DHT22;8311;50.158;8.642;2023-03-23T08:52:28;20.90;46.50
16404;DHT22;8311;50.158;8.642;2023-03-23T08:55:22;20.90;46.50
16404;DHT22;8311;50.158;8.642;2023-03-23T08:58:15;20.90;47.20
16404;DHT22;8311;50.158;8.642;2023-03-23T09:01:08;21.00;47.70
16404;DHT22;8311;50.158;8.642;2023-03-23T09:04:01;21.10;47.80
16404;DHT22;8311;50.158;8.642;2023-03-23T09:06:56;21.20;47.70
16404;DHT22;8311;50.158;8.642;2023-03-23T09:09:48;21.30;47.70
16404;DHT22;8311;50.158;8.642;2023-03-23T09:12:40;21.30;48.00
16404;DHT22;8311;50.158;8.642;2023-03-23T09:15:33;21.40;47.90
16404;DHT22;8311;50.158;8.642;2023-03-23T09:18:25;21.50;47.90
16404;DHT22;8311;50.158;8.642;2023-03-23T09:21:18;21.60;48.00
16404;DHT22;8311;50.158;8.642;2023-03-23T09:24:13;21.70;47.90
16404;DHT22;8311;50.158;8.642;2023-03-23T09:27:05;21.80;48.00
16404;DHT22;8311;50.158;8.642;2023-03-23T09:29:57;21.90;48.00
16404;DHT22;8311;50.158;8.642;2023-03-23T09:32:49;21.90;48.00
16404;DHT22;8311;50.158;8.642;2023-03-23T09:35:41;22.00;48.00
16404;DHT22;8311;50.158;8.642;2023-03-23T09:38:34;22.10;48.00
16404;DHT22;8311;50.158;8.642;2023-03-23T09:41:51;22.10;48.00
16404;DHT22;8311;50.158;8.642;2023-03-23T09:44:57;22.20;48.10
16404;DHT22;8311;50.158;8.642;2023-03-23T09:48:05;22.30;48.10
16404;DHT22;8311;50.158;8.642;2023-03-23T09:51:04;22.30;48.10
16404;DHT22;8311;50.158;8.642;2023-03-23T09:54:04;22.40;48.10
16404;DHT22;8311;50.158;8.642;2023-03-23T09:57:00;22.50;48.10
16404;DHT22;8311;50.158;8.642;2023-03-23T09:59:58;22.60;48.10
16404;DHT22;8311;50.158;8.642;2023-03-23T10:02:57;22.60;48.10
16404;DHT22;8311;50.158;8.642;2023-03-23T10:05:52;22.70;48.10
16404;DHT22;8311;50.158;8.642;2023-03-23T10:08:53;22.80;48.20
16404;DHT22;8311;50.158;8.642;2023-03-23T10:11:56;22.80;48.10
16404;DHT22;8311;50.158;8.642;2023-03-23T10:15:10;22.90;48.10
16404;DHT22;8311;50.158;8.642;2023-03-23T10:18:08;22.90;48.10
16404;DHT22;8311;50.158;8.642;2023-03-23T10:21:01;23.00;48.20
16404;DHT22;8311;50.158;8.642;2023-03-23T10:23:56;23.00;48.20
16404;DHT22;8311;50.158;8.642;2023-03-23T10:26:57;23.10;48.20
16404;DHT22;8311;50.158;8.642;2023-03-23T10:29:55;23.10;48.30
16404;DHT22;8311;50.158;8.642;2023-03-23T10:32:53;23.10;48.30
16404;DHT22;8311;50.158;8.642;2023-03-23T10:35:50;23.20;48.20
16404;DHT22;8311;50.158;8.642;2023-03-23T10:38:45;23.20;48.30
16404;DHT22;8311;50.158;8.642;2023-03-23T10:41:38;23.30;48.40
16404;DHT22;8311;50.158;8.642;2023-03-23T10:44:30;23.30;48.30
16404;DHT22;8311;50.158;8.642;2023-03-23T10:47:24;23.40;48.30
16404;DHT22;8311;50.158;8.642;2023-03-23T10:50:23;23.40;48.20
16404;DHT22;8311;50.158;8.642;2023-03-23T10:53:17;23.40;48.30
16404;DHT22;8311;50.158;8.642;2023-03-23T10:56:22;23.50;48.20
16404;DHT22;8311;50.158;8.642;2023-03-23T10:59:18;23.50;48.20
16404;DHT22;8311;50.158;8.642;2023-03-23T11:02:16;23.50;48.30
16404;DHT22;8311;50.158;8.642;2023-03-23T11:05:18;23.50;48.20
16404;DHT22;8311;50.158;8.642;2023-03-23T11:08:12;23.50;48.30
16404;DHT22;8311;50.158;8.642;2023-03-23T11:11:11;23.60;48.30
16404;DHT22;8311;50.158;8.642;2023-03-23T11:14:15;23.60;48.20
16404;DHT22;8311;50.158;8.642;2023-03-23T11:17:21;23.60;48.30
16404;DHT22;8311;50.158;8.642;2023-03-23T11:20:20;23.60;48.30
16404;DHT22;8311;50.158;8.642;2023-03-23T11:23:19;23.60;48.30
16404;DHT22;8311;50.158;8.642;2023-03-23T11:26:14;23.60;48.30
16404;DHT22;8311;50.158;8.642;2023-03-23T11:29:11;23.60;48.30
16404;DHT22;8311;50.158;8.642;2023-03-23T11:32:06;23.60;48.30
16404;DHT22;8311;50.158;8.642;2023-03-23T11:35:04;23.60;48.40
16404;DHT22;8311;50.158;8.642;2023-03-23T11:38:00;23.60;48.40
16404;DHT22;8311;50.158;8.642;2023-03-23T11:40:53;23.70;48.50
16404;DHT22;8311;50.158;8.642;2023-03-23T11:43:46;23.70;48.80
16404;DHT22;8311;50.158;8.642;2023-03-23T11:46:46;23.70;48.60
16404;DHT22;8311;50.158;8.642;2023-03-23T11:49:44;23.70;48.60
16404;DHT22;8311;50.158;8.642;2023-03-23T11:52:42;23.60;48.50
16404;DHT22;8311;50.158;8.642;2023-03-23T11:55:52;23.60;48.50
16404;DHT22;8311;50.158;8.642;2023-03-23T11:58:45;23.60;48.50
16404;DHT22;8311;50.158;8.642;2023-03-23T12:01:50;23.60;48.50
16404;DHT22;8311;50.158;8.642;2023-03-23T12:04:56;23.60;48.50
16404;DHT22;8311;50.158;8.642;2023-03-23T12:07:56;23.60;48.50
16404;DHT22;8311;50.158;8.642;2023-03-23T12:10:58;23.60;48.80
16404;DHT22;8311;50.158;8.642;2023-03-23T12:14:02;23.60;48.60
16404;DHT22;8311;50.158;8.642;2023-03-23T12:17:06;23.60;48.50
16404;DHT22;8311;50.158;8.642;2023-03-23T12:20:10;23.60;48.40
16404;DHT22;8311;50.158;8.642;2023-03-23T12:23:23;23.50;48.50
16404;DHT22;8311;50.158;8.642;2023-03-23T12:26:20;23.50;48.50
16404;DHT22;8311;50.158;8.642;2023-03-23T12:29:28;23.50;48.50
16404;DHT22;8311;50.158;8.642;2023-03-23T12:32:41;23.40;48.60
16404;DHT22;8311;50.158;8.642;2023-03-23T12:35:42;23.40;48.70
16404;DHT22;8311;50.158;8.642;2023-03-23T12:38:48;23.40;48.80
16404;DHT22;8311;50.158;8.642;2023-03-23T12:41:49;23.40;49.00
16404;DHT22;8311;50.158;8.642;2023-03-23T12:44:46;23.40;49.20
16404;DHT22;8311;50.158;8.642;2023-03-23T12:47:42;23.30;49.40
16404;DHT22;8311;50.158;8.642;2023-03-23T12:50:38;23.40;49.60
16404;DHT22;8311;50.158;8.642;2023-03-23T12:53:36;23.30;49.80
16404;DHT22;8311;50.158;8.642;2023-03-23T12:56:33;23.30;49.70
16404;DHT22;8311;50.158;8.642;2023-03-23T12:59:36;23.30;49.90
16404;DHT22;8311;50.158;8.642;2023-03-23T13:02:35;23.30;48.40
16404;DHT22;8311;50.158;8.642;2023-03-23T13:05:41;23.20;47.80
16404;DHT22;8311;50.158;8.642;2023-03-23T13:08:38;23.10;47.40
16404;DHT22;8311;50.158;8.642;2023-03-23T13:11:33;23.10;46.60
16404;DHT22;8311;50.158;8.642;2023-03-23T13:14:36;23.10;46.90
16404;DHT22;8311;50.158;8.642;2023-03-23T13:17:38;23.00;47.20
16404;DHT22;8311;50.158;8.642;2023-03-23T13:20:52;23.10;47.80
16404;DHT22;8311;50.158;8.642;2023-03-23T13:23:49;23.00;48.00
16404;DHT22;8311;50.158;8.642;2023-03-23T13:26:43;23.00;48.20
16404;DHT22;8311;50.158;8.642;2023-03-23T13:29:43;23.10;48.40
16404;DHT22;8311;50.158;8.642;2023-03-23T13:32:38;23.00;48.50
16404;DHT22;8311;50.158;8.642;2023-03-23T13:35:35;23.00;48.70
16404;DHT22;8311;50.158;8.642;2023-03-23T13:38:29;23.00;48.70
16404;DHT22;8311;50.158;8.642;2023-03-23T13:41:21;23.00;48.80
16404;DHT22;8311;50.158;8.642;2023-03-23T13:44:21;23.00;48.90
16404;DHT22;8311;50.158;8.642;2023-03-23T13:47:28;23.00;49.10
16404;DHT22;8311;50.158;8.642;2023-03-23T13:50:27;23.00;49.20
16404;DHT22;8311;50.158;8.642;2023-03-23T13:53:29;23.00;49.20
16404;DHT22;8311;50.158;8.642;2023-03-23T13:56:36;23.00;49.40
16404;DHT22;8311;50.158;8.642;2023-03-23T13:59:35;23.00;49.40
16404;DHT22;8311;50.158;8.642;2023-03-23T14:02:35;23.00;49.50
16404;DHT22;8311;50.158;8.642;2023-03-23T14:05:36;22.90;49.50
16404;DHT22;8311;50.158;8.642;2023-03-23T14:08:38;22.90;49.60
16404;DHT22;8311;50.158;8.642;2023-03-23T14:11:32;22.90;49.70
16404;DHT22;8311;50.158;8.642;2023-03-23T14:14:33;22.90;49.80
16404;DHT22;8311;50.158;8.642;2023-03-23T14:17:30;22.90;49.80
16404;DHT22;8311;50.158;8.642;2023-03-23T14:20:25;22.80;49.70
16404;DHT22;8311;50.158;8.642;2023-03-23T14:23:19;22.80;50.00
16404;DHT22;8311;50.158;8.642;2023-03-23T14:26:16;22.80;50.20
16404;DHT22;8311;50.158;8.642;2023-03-23T14:29:11;22.80;50.20
16404;DHT22;8311;50.158;8.642;2023-03-23T14:32:06;22.80;50.20
16404;DHT22;8311;50.158;8.642;2023-03-23T14:35:04;22.80;50.20
16404;DHT22;8311;50.158;8.642;2023-03-23T14:37:58;22.80;50.20
16404;DHT22;8311;50.158;8.642;2023-03-23T14:40:50;22.80;50.40
16404;DHT22;8311;50.158;8.642;2023-03-23T14:43:42;22.70;50.40
16404;DHT22;8311;50.158;8.642;2023-03-23T14:46:35;22.80;50.50
16404;DHT22;8311;50.158;8.642;2023-03-23T14:49:32;22.70;50.50
16404;DHT22;8311;50.158;8.642;2023-03-23T14:52:29;22.70;50.60
16404;DHT22;8311;50.158;8.642;2023-03-23T14:55:24;22.70;50.70
16404;DHT22;8311;50.158;8.642;2023-03-23T14:58:19;22.70;50.80
16404;DHT22;8311;50.158;8.642;2023-03-23T15:01:14;22.70;50.60
16404;DHT22;8311;50.158;8.642;2023-03-23T15:04:12;22.70;50.40
16404;DHT22;8311;50.158;8.642;2023-03-23T15:07:05;22.70;50.20
16404;DHT22;8311;50.158;8.642;2023-03-23T15:09:59;22.70;50.10
16404;DHT22;8311;50.158;8.642;2023-03-23T15:12:52;22.70;50.00
16404;DHT22;8311;50.158;8.642;2023-03-23T15:15:48;22.70;49.90
16404;DHT22;8311;50.158;8.642;2023-03-23T15:18:47;22.60;49.80
16404;DHT22;8311;50.158;8.642;2023-03-23T15:21:48;22.60;49.70
16404;DHT22;8311;50.158;8.642;2023-03-23T15:24:41;22.60;49.80
16404;DHT22;8311;50.158;8.642;2023-03-23T15:27:40;22.60;49.60
16404;DHT22;8311;50.158;8.642;2023-03-23T15:30:35;22.60;49.60
16404;DHT22;8311;50.158;8.642;2023-03-23T15:33:34;22.60;49.50
16404;DHT22;8311;50.158;8.642;2023-03-23T15:36:31;22.60;49.40
16404;DHT22;8311;50.158;8.642;2023-03-23T15:39:24;22.60;49.40
16404;DHT22;8311;50.158;8.642;2023-03-23T15:42:22;22.60;49.30
16404;DHT22;8311;50.158;8.642;2023-03-23T15:45:25;22.60;49.30
16404;DHT22;8311;50.158;8.642;2023-03-23T15:48:19;22.60;49.20
16404;DHT22;8311;50.158;8.642;2023-03-23T15:51:10;22.60;49.20
16404;DHT22;8311;50.158;8.642;2023-03-23T15:54:09;22.60;49.20
16404;DHT22;8311;50.158;8.642;2023-03-23T15:57:05;22.50;49.10
16404;DHT22;8311;50.158;8.642;2023-03-23T15:59:57;22.50;49.00
16404;DHT22;8311;50.158;8.642;2023-03-23T16:02:56;22.50;49.00
16404;DHT22;8311;50.158;8.642;2023-03-23T16:05:50;22.50;49.00
16404;DHT22;8311;50.158;8.642;2023-03-23T16:08:43;22.50;48.90
16404;DHT22;8311;50.158;8.642;2023-03-23T16:11:45;22.50;48.80
16404;DHT22;8311;50.158;8.642;2023-03-23T16:14:38;22.50;48.90
16404;DHT22;8311;50.158;8.642;2023-03-23T16:17:31;22.50;48.80
16404;DHT22;8311;50.158;8.642;2023-03-23T16:20:28;22.50;48.80
16404;DHT22;8311;50.158;8.642;2023-03-23T16:23:23;22.50;48.80
16404;DHT22;8311;50.158;8.642;2023-03-23T16:26:17;22.50;48.80
16404;DHT22;8311;50.158;8.642;2023-03-23T16:29:12;22.40;48.70
16404;DHT22;8311;50.158;8.642;2023-03-23T16:32:25;22.40;48.70
16404;DHT22;8311;50.158;8.642;2023-03-23T16:35:18;22.40;48.60
16404;DHT22;8311;50.158;8.642;2023-03-23T16:38:14;22.40;48.60
16404;DHT22;8311;50.158;8.642;2023-03-23T16:41:08;22.40;48.60
16404;DHT22;8311;50.158;8.642;2023-03-23T16:44:01;22.40;48.60
16404;DHT22;8311;50.158;8.642;2023-03-23T16:46:53;22.40;48.60
16404;DHT22;8311;50.158;8.642;2023-03-23T16:49:47;22.40;48.60
16404;DHT22;8311;50.158;8.642;2023-03-23T16:52:44;22.40;48.50
16404;DHT22;8311;50.158;8.642;2023-03-23T16:55:39;22.40;48.50
16404;DHT22;8311;50.158;8.642;2023-03-23T16:58:35;22.30;48.40
16404;DHT22;8311;50.158;8.642;2023-03-23T17:01:29;22.40;48.50
16404;DHT22;8311;50.158;8.642;2023-03-23T17:04:22;22.40;48.40
16404;DHT22;8311;50.158;8.642;2023-03-23T17:07:15;22.30;48.30
16404;DHT22;8311;50.158;8.642;2023-03-23T17:10:09;22.30;48.30
16404;DHT22;8311;50.158;8.642;2023-03-23T17:13:06;22.30;48.30
16404;DHT22;8311;50.158;8.642;2023-03-23T17:15:59;22.30;48.50
16404;DHT22;8311;50.158;8.642;2023-03-23T17:18:53;22.30;48.90
16404;DHT22;8311;50.158;8.642;2023-03-23T17:21:46;22.30;48.60
16404;DHT22;8311;50.158;8.642;2023-03-23T17:24:40;22.30;48.40
16404;DHT22;8311;50.158;8.642;2023-03-23T17:27:33;22.30;48.90
16404;DHT22;8311;50.158;8.642;2023-03-23T17:30:28;22.30;48.20
16404;DHT22;8311;50.158;8.642;2023-03-23T17:33:20;22.20;48.20
16404;DHT22;8311;50.158;8.642;2023-03-23T17:36:14;22.30;48.30
16404;DHT22;8311;50.158;8.642;2023-03-23T17:39:08;22.30;48.20
16404;DHT22;8311;50.158;8.642;2023-03-23T17:42:01;22.30;48.10
16404;DHT22;8311;50.158;8.642;2023-03-23T17:44:55;22.20;48.00
16404;DHT22;8311;50.158;8.642;2023-03-23T17:47:49;22.20;48.00
16404;DHT22;8311;50.158;8.642;2023-03-23T17:50:46;22.20;48.00
16404;DHT22;8311;50.158;8.642;2023-03-23T17:53:39;22.20;47.90
16404;DHT22;8311;50.158;8.642;2023-03-23T17:56:32;22.20;47.90
16404;DHT22;8311;50.158;8.642;2023-03-23T17:59:25;22.20;47.90
16404;DHT22;8311;50.158;8.642;2023-03-23T18:02:19;22.20;47.90
16404;DHT22;8311;50.158;8.642;2023-03-23T18:05:14;22.20;48.00
16404;DHT22;8311;50.158;8.642;2023-03-23T18:08:08;22.20;48.30
16404;DHT22;8311;50.158;8.642;2023-03-23T18:11:00;22.20;48.50
16404;DHT22;8311;50.158;8.642;2023-03-23T18:13:54;22.20;48.50
16404;DHT22;8311;50.158;8.642;2023-03-23T18:16:48;22.20;48.70
16404;DHT22;8311;50.158;8.642;2023-03-23T18:19:40;22.20;48.80
16404;DHT22;8311;50.158;8.642;2023-03-23T18:22:37;22.20;49.00
16404;DHT22;8311;50.158;8.642;2023-03-23T18:25:31;22.20;49.00
16404;DHT22;8311;50.158;8.642;2023-03-23T18:28:24;22.20;49.10
16404;DHT22;8311;50.158;8.642;2023-03-23T18:31:18;22.20;49.30
16404;DHT22;8311;50.158;8.642;2023-03-23T18:34:12;22.20;49.20
16404;DHT22;8311;50.158;8.642;2023-03-23T18:37:05;22.20;49.20
16404;DHT22;8311;50.158;8.642;2023-03-23T18:40:00;22.20;49.40
16404;DHT22;8311;50.158;8.642;2023-03-23T18:42:55;22.20;49.50
16404;DHT22;8311;50.158;8.642;2023-03-23T18:45:49;22.20;49.40
16404;DHT22;8311;50.158;8.642;2023-03-23T18:48:43;22.20;49.50
16404;DHT22;8311;50.158;8.642;2023-03-23T18:51:36;22.20;49.70